Time,TemperatureF,DewpointF,PressureIn,WindDirection,WindDirectionDegrees,WindSpeedMPH,WindSpeedGustMPH,Humidity,HourlyPrecipIn,Conditions,Clouds,dailyrainin,SolarRadiationWatts/m^2,SoftwareType,DateUTC
2013-07-06 00:01:00,56.0,52.0,-100.00,North,350,10.0,18.0,88,0.00,,,0.00,2.000000,,2013-07-06 07:01:00,
2013-07-06 00:33:00,57.0,52.0,-100.00,North,8,10.0,17.0,83,0.00,,,0.00,2.000000,,2013-07-06 07:33:00,
2013-07-06 00:44:00,57.0,52.0,-100.00,North,8,10.0,17.0,83,0.00,,,0.00,2.000000,,2013-07-06 07:44:00,
2013-07-06 00:52:00,57.0,52.0,-100.00,North,8,10.0,17.0,83,0.00,,,0.00,2.000000,,2013-07-06 07:52:00,
2013-07-06 01:02:00,57.0,52.0,-100.00,North,8,10.0,17.0,83,0.00,,,0.00,2.000000,,2013-07-06 08:02:00,
2013-07-06 01:34:00,55.0,50.0,-100.00,North,7,6.0,17.0,84,0.00,,,0.00,2.000000,,2013-07-06 08:34:00,
2013-07-06 01:43:00,55.0,50.0,-100.00,North,7,6.0,17.0,84,0.00,,,0.00,2.000000,,2013-07-06 08:43:00,
2013-07-06 01:54:00,55.0,50.0,-100.00,North,7,6.0,17.0,84,0.00,,,0.00,2.000000,,2013-07-06 08:54:00,
2013-07-06 02:02:00,55.0,50.0,-100.00,North,7,6.0,17.0,84,0.00,,,0.00,2.000000,,2013-07-06 09:02:00,
2013-07-06 02:34:00,52.0,50.0,-100.00,ENE,66,0.0,9.0,94,0.00,,,0.00,1.000000,,2013-07-06 09:34:00,
2013-07-06 02:43:00,52.0,50.0,-100.00,ENE,66,0.0,9.0,94,0.00,,,0.00,1.000000,,2013-07-06 09:43:00,
2013-07-06 02:52:00,52.0,50.0,-100.00,ENE,66,0.0,9.0,94,0.00,,,0.00,1.000000,,2013-07-06 09:52:00,
2013-07-06 03:02:00,52.0,50.0,-100.00,ENE,66,0.0,9.0,94,0.00,,,0.00,1.000000,,2013-07-06 10:02:00,
2013-07-06 03:33:00,50.0,50.0,-100.00,NE,38,0.0,2.0,100,0.00,,,0.00,2.000000,,2013-07-06 10:33:00,
2013-07-06 03:43:00,50.0,50.0,-100.00,NE,38,0.0,2.0,100,0.00,,,0.00,2.000000,,2013-07-06 10:43:00,
2013-07-06 03:53:00,50.0,50.0,-100.00,NE,38,0.0,2.0,100,0.00,,,0.00,2.000000,,2013-07-06 10:53:00,
2013-07-06 04:01:00,50.0,50.0,-100.00,NE,38,0.0,2.0,100,0.00,,,0.00,2.000000,,2013-07-06 11:01:00,
2013-07-06 04:33:00,50.0,50.0,-100.00,ENE,69,0.0,4.0,100,0.00,,,-99.99,2.000000,,2013-07-06 11:33:00,
2013-07-06 04:43:00,50.0,50.0,-100.00,ENE,69,0.0,4.0,100,0.00,,,-99.99,2.000000,,2013-07-06 11:43:00,
2013-07-06 04:53:00,50.0,50.0,-100.00,ENE,69,0.0,4.0,100,0.00,,,-99.99,2.000000,,2013-07-06 11:53:00,
2013-07-06 05:01:00,50.0,50.0,-100.00,ENE,69,0.0,4.0,100,0.00,,,-99.99,2.000000,,2013-07-06 12:01:00,
2013-07-06 05:33:00,50.0,50.0,-100.00,NE,40,0.0,4.0,100,0.00,,,0.00,2.000000,,2013-07-06 12:33:00,
2013-07-06 05:43:00,50.0,50.0,-100.00,NE,40,0.0,4.0,100,0.00,,,0.00,2.000000,,2013-07-06 12:43:00,
2013-07-06 05:52:00,50.0,50.0,-100.00,NE,40,0.0,4.0,100,0.00,,,0.00,2.000000,,2013-07-06 12:52:00,
2013-07-06 06:01:00,50.0,50.0,-100.00,NE,40,0.0,4.0,100,0.00,,,0.00,2.000000,,2013-07-06 13:01:00,
2013-07-06 06:43:00,51.0,51.0,-100.00,NE,45,1.0,5.0,100,0.00,,,0.00,6.000000,,2013-07-06 13:43:00,
2013-07-06 06:52:00,51.0,51.0,-100.00,NE,45,1.0,5.0,100,0.00,,,0.00,6.000000,,2013-07-06 13:52:00,
2013-07-06 07:02:00,51.0,51.0,-100.00,NE,45,1.0,5.0,100,0.00,,,0.00,6.000000,,2013-07-06 14:02:00,
2013-07-06 07:34:00,51.0,51.0,-100.00,NNE,13,3.0,5.0,100,0.00,,,0.00,61.000000,,2013-07-06 14:34:00,
2013-07-06 07:42:00,51.0,51.0,-100.00,NNE,13,3.0,5.0,100,0.00,,,0.00,61.000000,,2013-07-06 14:42:00,
2013-07-06 07:53:00,51.0,51.0,-100.00,NNE,13,3.0,5.0,100,0.00,,,0.00,61.000000,,2013-07-06 14:53:00,
2013-07-06 08:02:00,51.0,51.0,-100.00,NNE,13,3.0,5.0,100,0.00,,,0.00,61.000000,,2013-07-06 15:02:00,
2013-07-06 08:33:00,56.0,56.0,-100.00,NNE,21,2.0,6.0,100,0.00,,,0.00,221.000000,,2013-07-06 15:33:00,
2013-07-06 08:43:00,56.0,56.0,-100.00,NNE,21,2.0,6.0,100,0.00,,,0.00,221.000000,,2013-07-06 15:43:00,
2013-07-06 08:53:00,56.0,56.0,-100.00,NNE,21,2.0,6.0,100,0.00,,,0.00,221.000000,,2013-07-06 15:53:00,
2013-07-06 09:03:00,56.0,56.0,-100.00,NNE,21,2.0,6.0,100,0.00,,,0.00,221.000000,,2013-07-06 16:03:00,
2013-07-06 09:04:00,63.0,54.0,-100.00,NE,48,1.0,7.0,72,0.00,,,0.00,460.000000,,2013-07-06 16:04:00,
2013-07-06 10:04:00,66.0,55.0,-100.00,North,357,8.0,13.0,67,0.00,,,0.00,644.000000,,2013-07-06 17:04:00,
2013-07-06 10:57:00,66.0,55.0,-100.00,North,357,8.0,13.0,67,0.00,,,0.00,644.000000,,2013-07-06 17:57:00,
2013-07-06 11:04:00,63.0,52.0,-100.00,NNW,341,11.0,19.0,68,0.00,,,0.00,798.000000,,2013-07-06 18:04:00,
2013-07-06 11:38:00,63.0,52.0,-100.00,NNW,341,11.0,19.0,68,0.00,,,0.00,798.000000,,2013-07-06 18:38:00,
2013-07-06 11:48:00,63.0,52.0,-100.00,NNW,341,11.0,19.0,68,0.00,,,0.00,798.000000,,2013-07-06 18:48:00,
2013-07-06 11:58:00,63.0,52.0,-100.00,NNW,341,11.0,19.0,68,0.00,,,0.00,798.000000,,2013-07-06 18:58:00,
2013-07-06 12:56:00,63.0,52.0,-100.00,North,352,14.0,25.0,68,0.00,,,0.00,912.000000,,2013-07-06 19:56:00,
2013-07-06 13:01:00,63.0,52.0,-100.00,North,352,14.0,25.0,68,0.00,,,0.00,912.000000,,2013-07-06 20:01:00,
2013-07-06 13:04:00,65.0,53.0,-100.00,North,353,16.0,28.0,66,0.00,,,0.00,980.000000,,2013-07-06 20:04:00,
2013-07-06 14:04:00,65.0,54.0,-100.00,North,351,15.0,27.0,68,0.00,,,0.00,989.000000,,2013-07-06 21:04:00,
2013-07-06 15:04:00,65.0,55.0,-100.00,North,357,15.0,28.0,69,0.00,,,0.00,951.000000,,2013-07-06 22:04:00,
2013-07-06 15:48:00,65.0,55.0,-100.00,North,357,15.0,28.0,69,0.00,,,0.00,951.000000,,2013-07-06 22:48:00,
2013-07-06 16:04:00,63.0,54.0,-100.00,NNW,346,14.0,27.0,72,0.00,,,0.00,864.000000,,2013-07-06 23:04:00,
2013-07-06 16:50:00,63.0,54.0,-100.00,NNW,346,14.0,27.0,72,0.00,,,0.00,864.000000,,2013-07-06 23:50:00,
2013-07-06 17:04:00,64.0,55.0,-100.00,NNW,347,17.0,28.0,72,0.00,,,0.00,737.000000,,2013-07-07 00:04:00,
2013-07-06 17:58:00,64.0,55.0,-100.00,NNW,347,17.0,28.0,72,0.00,,,0.00,737.000000,,2013-07-07 00:58:00,
2013-07-06 18:47:00,63.0,54.0,-100.00,NNW,347,16.0,30.0,73,0.00,,,0.00,573.000000,,2013-07-07 01:47:00,
2013-07-06 19:42:00,61.0,55.0,-100.00,NNW,343,14.0,29.0,80,0.00,,,0.00,392.000000,,2013-07-07 02:42:00,
2013-07-06 20:51:00,57.0,53.0,-100.00,NNW,348,14.0,26.0,87,0.00,,,0.00,181.000000,,2013-07-07 03:51:00,
2013-07-06 21:00:00,57.0,53.0,-100.00,NNW,348,14.0,26.0,87,0.00,,,0.00,181.000000,,2013-07-07 04:00:00,
2013-07-06 21:01:00,57.0,53.0,-100.00,NNW,348,14.0,26.0,87,0.00,,,0.00,181.000000,,2013-07-07 04:01:00,
2013-07-06 21:31:00,57.0,55.0,-100.00,North,353,15.0,24.0,93,0.00,,,0.00,32.000000,,2013-07-07 04:31:00,
2013-07-06 21:41:00,57.0,55.0,-100.00,North,353,15.0,24.0,93,0.00,,,0.00,32.000000,,2013-07-07 04:41:00,
2013-07-06 21:51:00,57.0,55.0,-100.00,North,353,15.0,24.0,93,0.00,,,0.00,32.000000,,2013-07-07 04:51:00,
2013-07-06 22:01:00,57.0,55.0,-100.00,North,353,15.0,24.0,93,0.00,,,0.00,32.000000,,2013-07-07 05:01:00,
2013-07-06 22:31:00,55.0,54.0,-100.00,North,349,13.0,24.0,97,0.00,,,0.00,3.000000,,2013-07-07 05:31:00,
2013-07-06 22:41:00,55.0,54.0,-100.00,North,349,13.0,24.0,97,0.00,,,0.00,3.000000,,2013-07-07 05:41:00,
2013-07-06 22:51:00,55.0,54.0,-100.00,North,349,13.0,24.0,97,0.00,,,0.00,3.000000,,2013-07-07 05:51:00,
2013-07-06 23:01:00,55.0,54.0,-100.00,North,349,13.0,24.0,97,0.00,,,0.00,3.000000,,2013-07-07 06:01:00,
2013-07-06 23:32:00,55.0,54.0,-100.00,North,355,13.0,22.0,97,0.00,,,0.00,3.000000,,2013-07-07 06:32:00,
2013-07-06 23:43:00,55.0,54.0,-100.00,North,355,13.0,22.0,97,0.00,,,0.00,3.000000,,2013-07-07 06:43:00,
2013-07-06 23:52:00,55.0,54.0,-100.00,North,355,13.0,22.0,97,0.00,,,0.00,3.000000,,2013-07-07 06:52:00,